sensor_id;sensor_type;location;lat;lon;timestamp;pressure;altitude;pressure_sealevel;temperature;humidity
72636;BME280;60679;48.888;15.544;2023-03-25T00:00:31;95386.75;;;9.23;69.62
72636;BME280;60679;48.888;15.544;2023-03-25T00:02:57;95374.81;;;9.19;69.88
72636;BME280;60679;48.888;15.544;2023-03-25T00:05:23;95369.66;;;9.18;69.91
72636;BME280;60679;48.888;15.544;2023-03-25T00:07:50;95363.13;;;9.14;70.13
72636;BME280;60679;48.888;15.544;2023-03-25T00:10:17;95353.03;;;9.09;70.07
72636;BME280;60679;48.888;15.544;2023-03-25T00:12:43;95358.78;;;9.01;70.25
72636;BME280;60679;48.888;15.544;2023-03-25T00:15:10;95363.50;;;8.94;70.04
72636;BME280;60679;48.888;15.544;2023-03-25T00:17:36;95360.66;;;8.89;70.31
72636;BME280;60679;48.888;15.544;2023-03-25T00:20:04;95363.03;;;8.86;69.91
72636;BME280;60679;48.888;15.544;2023-03-25T00:22:36;95362.44;;;8.84;70.40
72636;BME280;60679;48.888;15.544;2023-03-25T00:25:10;95362.56;;;8.77;70.52
72636;BME280;60679;48.888;15.544;2023-03-25T00:27:35;95372.97;;;8.74;70.35
72636;BME280;60679;48.888;15.544;2023-03-25T00:30:03;95365.16;;;8.72;70.47
72636;BME280;60679;48.888;15.544;2023-03-25T00:32:28;95369.94;;;8.70;70.48
72636;BME280;60679;48.888;15.544;2023-03-25T00:34:54;95372.16;;;8.73;70.20
72636;BME280;60679;48.888;15.544;2023-03-25T00:37:20;95371.13;;;8.74;70.50
72636;BME280;60679;48.888;15.544;2023-03-25T00:39:46;95350.25;;;8.69;70.46
72636;BME280;60679;48.888;15.544;2023-03-25T00:42:16;95358.34;;;8.69;70.72
72636;BME280;60679;48.888;15.544;2023-03-25T00:44:42;95360.72;;;8.66;70.49
72636;BME280;60679;48.888;15.544;2023-03-25T00:47:07;95359.63;;;8.67;70.57
72636;BME280;60679;48.888;15.544;2023-03-25T00:49:33;95358.34;;;8.69;70.64
72636;BME280;60679;48.888;15.544;2023-03-25T00:51:58;95351.09;;;8.70;70.87
72636;BME280;60679;48.888;15.544;2023-03-25T00:54:24;95349.34;;;8.76;70.69
72636;BME280;60679;48.888;15.544;2023-03-25T00:56:51;95349.94;;;8.78;70.79
72636;BME280;60679;48.888;15.544;2023-03-25T00:59:17;95353.44;;;8.78;70.71
72636;BME280;60679;48.888;15.544;2023-03-25T01:01:42;95347.47;;;8.76;70.63
72636;BME280;60679;48.888;15.544;2023-03-25T01:04:10;95338.25;;;8.72;70.51
72636;BME280;60679;48.888;15.544;2023-03-25T01:06:38;95346.19;;;8.67;70.59
72636;BME280;60679;48.888;15.544;2023-03-25T01:09:11;95335.78;;;8.70;70.75
72636;BME280;60679;48.888;15.544;2023-03-25T01:11:42;95347.34;;;8.71;70.71
72636;BME280;60679;48.888;15.544;2023-03-25T01:14:12;95337.28;;;8.66;70.78
72636;BME280;60679;48.888;15.544;2023-03-25T01:16:38;95331.69;;;8.68;70.84
72636;BME280;60679;48.888;15.544;2023-03-25T01:19:04;95346.88;;;8.74;70.74
72636;BME280;60679;48.888;15.544;2023-03-25T01:21:29;95340.94;;;8.72;70.85
72636;BME280;60679;48.888;15.544;2023-03-25T01:23:58;95336.81;;;8.69;70.59
72636;BME280;60679;48.888;15.544;2023-03-25T01:26:23;95336.13;;;8.62;70.48
72636;BME280;60679;48.888;15.544;2023-03-25T01:28:49;95341.41;;;8.57;70.63
72636;BME280;60679;48.888;15.544;2023-03-25T01:31:15;95349.69;;;8.56;70.83
72636;BME280;60679;48.888;15.544;2023-03-25T01:33:41;95350.63;;;8.50;70.79
72636;BME280;60679;48.888;15.544;2023-03-25T01:36:07;95362.44;;;8.49;70.65
72636;BME280;60679;48.888;15.544;2023-03-25T01:38:40;95358.69;;;8.50;70.63
72636;BME280;60679;48.888;15.544;2023-03-25T01:41:06;95360.78;;;8.48;70.88
72636;BME280;60679;48.888;15.544;2023-03-25T01:43:32;95346.53;;;8.47;70.75
72636;BME280;60679;48.888;15.544;2023-03-25T01:45:58;95350.88;;;8.48;70.74
72636;BME280;60679;48.888;15.544;2023-03-25T01:48:43;95357.16;;;8.42;70.65
72636;BME280;60679;48.888;15.544;2023-03-25T01:51:16;95345.84;;;8.40;70.81
72636;BME280;60679;48.888;15.544;2023-03-25T01:53:43;95348.97;;;8.37;70.73
72636;BME280;60679;48.888;15.544;2023-03-25T01:56:11;95348.75;;;8.39;70.81
72636;BME280;60679;48.888;15.544;2023-03-25T01:58:38;95347.91;;;8.38;70.78
72636;BME280;60679;48.888;15.544;2023-03-25T02:01:05;95354.81;;;8.34;70.74
72636;BME280;60679;48.888;15.544;2023-03-25T02:03:31;95361.03;;;8.35;70.61
72636;BME280;60679;48.888;15.544;2023-03-25T02:06:13;95363.13;;;8.33;70.73
72636;BME280;60679;48.888;15.544;2023-03-25T02:08:40;95356.31;;;8.30;70.50
72636;BME280;60679;48.888;15.544;2023-03-25T02:11:08;95345.41;;;8.25;71.09
72636;BME280;60679;48.888;15.544;2023-03-25T02:13:36;95350.38;;;8.28;70.77
72636;BME280;60679;48.888;15.544;2023-03-25T02:16:25;95350.59;;;8.27;70.60
72636;BME280;60679;48.888;15.544;2023-03-25T02:40:55;95352.97;;;8.05;71.00
72636;BME280;60679;48.888;15.544;2023-03-25T02:43:33;95355.34;;;8.01;70.67
72636;BME280;60679;48.888;15.544;2023-03-25T02:46:06;95363.03;;;7.98;70.97
72636;BME280;60679;48.888;15.544;2023-03-25T02:48:54;95358.22;;;8.00;70.90
72636;BME280;60679;48.888;15.544;2023-03-25T02:51:31;95349.47;;;8.04;70.88
72636;BME280;60679;48.888;15.544;2023-03-25T02:54:06;95351.44;;;7.97;71.09
72636;BME280;60679;48.888;15.544;2023-03-25T02:56:34;95349.22;;;7.94;70.90
72636;BME280;60679;48.888;15.544;2023-03-25T02:59:01;95345.50;;;7.95;70.89
72636;BME280;60679;48.888;15.544;2023-03-25T03:01:28;95345.72;;;7.94;70.94
72636;BME280;60679;48.888;15.544;2023-03-25T03:03:54;95347.00;;;7.91;70.95
72636;BME280;60679;48.888;15.544;2023-03-25T03:06:21;95346.78;;;7.93;70.97
72636;BME280;60679;48.888;15.544;2023-03-25T03:19:43;95367.38;;;7.69;71.18
72636;BME280;60679;48.888;15.544;2023-03-25T03:22:45;95366.09;;;7.72;71.04
72636;BME280;60679;48.888;15.544;2023-03-25T03:25:22;95372.28;;;7.72;70.93
72636;BME280;60679;48.888;15.544;2023-03-25T03:28:01;95372.16;;;7.67;71.19
72636;BME280;60679;48.888;15.544;2023-03-25T03:33:08;95366.22;;;7.47;71.11
72636;BME280;60679;48.888;15.544;2023-03-25T03:35:46;95368.41;;;7.38;71.16
72636;BME280;60679;48.888;15.544;2023-03-25T03:38:16;95370.50;;;7.36;71.23
72636;BME280;60679;48.888;15.544;2023-03-25T03:40:49;95363.25;;;7.37;71.24
72636;BME280;60679;48.888;15.544;2023-03-25T03:43:25;95360.72;;;7.42;71.35
72636;BME280;60679;48.888;15.544;2023-03-25T03:45:56;95356.88;;;7.49;71.25
72636;BME280;60679;48.888;15.544;2023-03-25T03:48:40;95361.69;;;7.47;71.06
72636;BME280;60679;48.888;15.544;2023-03-25T03:51:17;95367.50;;;7.44;71.39
72636;BME280;60679;48.888;15.544;2023-03-25T03:54:10;95368.09;;;7.46;71.17
72636;BME280;60679;48.888;15.544;2023-03-25T03:56:51;95376.59;;;7.43;71.49
72636;BME280;60679;48.888;15.544;2023-03-25T04:02:45;95367.00;;;7.36;71.14
72636;BME280;60679;48.888;15.544;2023-03-25T04:05:15;95370.56;;;7.30;71.45
72636;BME280;60679;48.888;15.544;2023-03-25T04:08:02;95376.91;;;7.35;71.48
72636;BME280;60679;48.888;15.544;2023-03-25T04:13:21;95396.59;;;7.29;71.44
72636;BME280;60679;48.888;15.544;2023-03-25T04:15:47;95393.97;;;7.41;71.38
72636;BME280;60679;48.888;15.544;2023-03-25T04:18:13;95385.22;;;7.45;71.38
72636;BME280;60679;48.888;15.544;2023-03-25T04:20:39;95388.38;;;7.42;71.29
72636;BME280;60679;48.888;15.544;2023-03-25T04:23:09;95381.00;;;7.38;71.18
72636;BME280;60679;48.888;15.544;2023-03-25T04:25:43;95391.03;;;7.31;71.42
72636;BME280;60679;48.888;15.544;2023-03-25T04:28:15;95384.59;;;7.32;71.34
72636;BME280;60679;48.888;15.544;2023-03-25T04:30:42;95385.16;;;7.34;71.15
72636;BME280;60679;48.888;15.544;2023-03-25T04:33:10;95398.13;;;7.25;71.29
72636;BME280;60679;48.888;15.544;2023-03-25T04:35:36;95394.94;;;7.28;71.52
72636;BME280;60679;48.888;15.544;2023-03-25T04:38:03;95390.72;;;7.21;71.33
72636;BME280;60679;48.888;15.544;2023-03-25T04:40:30;95387.88;;;7.16;71.29
72636;BME280;60679;48.888;15.544;2023-03-25T04:42:56;95387.50;;;7.12;71.20
72636;BME280;60679;48.888;15.544;2023-03-25T04:45:21;95389.22;;;7.07;71.40
72636;BME280;60679;48.888;15.544;2023-03-25T04:47:48;95390.72;;;7.03;71.23
72636;BME280;60679;48.888;15.544;2023-03-25T04:50:23;95391.75;;;7.02;71.37
72636;BME280;60679;48.888;15.544;2023-03-25T04:52:51;95391.38;;;6.98;71.32
72636;BME280;60679;48.888;15.544;2023-03-25T04:55:18;95394.00;;;7.05;71.34
72636;BME280;60679;48.888;15.544;2023-03-25T04:57:48;95400.94;;;7.12;71.51
72636;BME280;60679;48.888;15.544;2023-03-25T05:00:17;95390.94;;;7.19;71.21
72636;BME280;60679;48.888;15.544;2023-03-25T05:02:44;95391.28;;;7.23;71.27
72636;BME280;60679;48.888;15.544;2023-03-25T05:05:14;95396.47;;;7.24;71.39
72636;BME280;60679;48.888;15.544;2023-03-25T05:07:52;95410.72;;;7.25;71.15
72636;BME280;60679;48.888;15.544;2023-03-25T05:10:21;95410.72;;;7.25;71.17
72636;BME280;60679;48.888;15.544;2023-03-25T05:12:46;95403.69;;;7.24;71.32
72636;BME280;60679;48.888;15.544;2023-03-25T05:15:13;95401.97;;;7.29;71.09
72636;BME280;60679;48.888;15.544;2023-03-25T05:17:39;95403.97;;;7.34;71.07
72636;BME280;60679;48.888;15.544;2023-03-25T05:20:06;95408.69;;;7.38;70.95
72636;BME280;60679;48.888;15.544;2023-03-25T05:22:36;95412.91;;;7.46;70.65
72636;BME280;60679;48.888;15.544;2023-03-25T05:25:04;95414.25;;;7.55;70.52
72636;BME280;60679;48.888;15.544;2023-03-25T05:27:31;95409.41;;;7.64;70.38
72636;BME280;60679;48.888;15.544;2023-03-25T05:29:57;95409.59;;;7.62;70.48
72636;BME280;60679;48.888;15.544;2023-03-25T05:32:26;95412.53;;;7.61;70.46
72636;BME280;60679;48.888;15.544;2023-03-25T05:34:55;95398.53;;;7.59;70.57
72636;BME280;60679;48.888;15.544;2023-03-25T05:37:21;95403.88;;;7.59;70.40
72636;BME280;60679;48.888;15.544;2023-03-25T05:39:47;95411.25;;;7.63;70.44
72636;BME280;60679;48.888;15.544;2023-03-25T05:42:13;95403.56;;;7.67;70.25
72636;BME280;60679;48.888;15.544;2023-03-25T05:44:39;95415.50;;;7.71;69.95
72636;BME280;60679;48.888;15.544;2023-03-25T05:47:18;95416.09;;;7.73;70.05
72636;BME280;60679;48.888;15.544;2023-03-25T05:49:46;95407.13;;;7.79;70.03
72636;BME280;60679;48.888;15.544;2023-03-25T05:52:11;95413.59;;;7.89;69.99
72636;BME280;60679;48.888;15.544;2023-03-25T05:54:37;95414.56;;;7.95;69.61
72636;BME280;60679;48.888;15.544;2023-03-25T05:57:07;95420.31;;;8.10;69.59
72636;BME280;60679;48.888;15.544;2023-03-25T05:59:33;95420.97;;;8.24;69.36
72636;BME280;60679;48.888;15.544;2023-03-25T06:01:59;95412.97;;;8.35;69.11
72636;BME280;60679;48.888;15.544;2023-03-25T06:04:24;95425.16;;;8.49;68.95
72636;BME280;60679;48.888;15.544;2023-03-25T06:06:50;95423.28;;;8.61;68.75
72636;BME280;60679;48.888;15.544;2023-03-25T06:09:15;95436.38;;;8.69;68.75
72636;BME280;60679;48.888;15.544;2023-03-25T06:11:42;95424.69;;;8.76;68.67
72636;BME280;60679;48.888;15.544;2023-03-25T06:14:08;95440.97;;;8.81;68.65
72636;BME280;60679;48.888;15.544;2023-03-25T06:16:34;95441.09;;;8.86;68.45
72636;BME280;60679;48.888;15.544;2023-03-25T06:18:59;95444.84;;;8.96;68.50
72636;BME280;60679;48.888;15.544;2023-03-25T06:21:30;95444.84;;;9.08;68.26
72636;BME280;60679;48.888;15.544;2023-03-25T06:23:59;95454.44;;;9.15;67.98
72636;BME280;60679;48.888;15.544;2023-03-25T06:26:26;95452.31;;;9.17;68.08
72636;BME280;60679;48.888;15.544;2023-03-25T06:28:52;95460.66;;;9.16;68.14
72636;BME280;60679;48.888;15.544;2023-03-25T06:31:24;95465.22;;;9.15;68.20
72636;BME280;60679;48.888;15.544;2023-03-25T06:33:53;95466.16;;;9.21;68.10
72636;BME280;60679;48.888;15.544;2023-03-25T06:36:19;95469.09;;;9.31;67.78
72636;BME280;60679;48.888;15.544;2023-03-25T06:38:45;95473.19;;;9.45;67.71
72636;BME280;60679;48.888;15.544;2023-03-25T06:41:12;95466.22;;;9.61;67.18
72636;BME280;60679;48.888;15.544;2023-03-25T06:43:38;95469.56;;;9.79;66.81
72636;BME280;60679;48.888;15.544;2023-03-25T06:46:06;95460.84;;;10.01;66.51
72636;BME280;60679;48.888;15.544;2023-03-25T06:48:32;95460.19;;;10.22;66.18
72636;BME280;60679;48.888;15.544;2023-03-25T06:50:59;95461.22;;;10.32;66.20
72636;BME280;60679;48.888;15.544;2023-03-25T06:53:24;95467.09;;;10.29;65.99
72636;BME280;60679;48.888;15.544;2023-03-25T06:55:50;95465.75;;;10.15;66.66
72636;BME280;60679;48.888;15.544;2023-03-25T06:58:15;95464.59;;;10.00;66.84
72636;BME280;60679;48.888;15.544;2023-03-25T07:00:41;95468.84;;;9.96;66.89
72636;BME280;60679;48.888;15.544;2023-03-25T07:03:07;95471.53;;;9.96;66.56
72636;BME280;60679;48.888;15.544;2023-03-25T07:05:33;95470.34;;;10.03;66.83
72636;BME280;60679;48.888;15.544;2023-03-25T07:08:01;95472.47;;;10.13;66.41
72636;BME280;60679;48.888;15.544;2023-03-25T07:10:26;95480.50;;;10.24;66.01
72636;BME280;60679;48.888;15.544;2023-03-25T07:12:52;95466.66;;;10.49;65.49
72636;BME280;60679;48.888;15.544;2023-03-25T07:15:17;95472.16;;;10.87;64.77
72636;BME280;60679;48.888;15.544;2023-03-25T07:17:43;95481.19;;;11.10;64.55
72636;BME280;60679;48.888;15.544;2023-03-25T07:20:09;95480.47;;;11.14;64.43
72636;BME280;60679;48.888;15.544;2023-03-25T07:22:36;95474.72;;;11.11;64.84
72636;BME280;60679;48.888;15.544;2023-03-25T07:25:01;95468.09;;;11.01;64.87
72636;BME280;60679;48.888;15.544;2023-03-25T07:27:27;95479.38;;;10.98;64.78
72636;BME280;60679;48.888;15.544;2023-03-25T07:29:53;95472.09;;;10.99;64.56
72636;BME280;60679;48.888;15.544;2023-03-25T07:32:20;95464.66;;;11.06;64.49
72636;BME280;60679;48.888;15.544;2023-03-25T07:34:45;95465.78;;;11.10;64.28
72636;BME280;60679;48.888;15.544;2023-03-25T07:37:11;95476.59;;;11.10;64.35
72636;BME280;60679;48.888;15.544;2023-03-25T07:39:36;95479.78;;;11.07;64.11
72636;BME280;60679;48.888;15.544;2023-03-25T07:42:02;95476.03;;;11.08;64.22
72636;BME280;60679;48.888;15.544;2023-03-25T07:44:29;95472.50;;;11.08;64.10
72636;BME280;60679;48.888;15.544;2023-03-25T07:46:54;95474.22;;;11.14;64.03
72636;BME280;60679;48.888;15.544;2023-03-25T07:49:20;95476.50;;;11.22;63.91
72636;BME280;60679;48.888;15.544;2023-03-25T07:51:45;95488.38;;;11.37;63.51
72636;BME280;60679;48.888;15.544;2023-03-25T07:54:11;95478.28;;;11.49;63.43
72636;BME280;60679;48.888;15.544;2023-03-25T07:56:37;95472.25;;;11.64;63.11
72636;BME280;60679;48.888;15.544;2023-03-25T07:59:03;95466.84;;;11.81;62.70
72636;BME280;60679;48.888;15.544;2023-03-25T08:01:29;95477.78;;;12.12;62.00
72636;BME280;60679;48.888;15.544;2023-03-25T08:03:55;95468.63;;;12.40;61.62
72636;BME280;60679;48.888;15.544;2023-03-25T08:06:20;95476.81;;;12.45;61.44
72636;BME280;60679;48.888;15.544;2023-03-25T08:08:46;95480.78;;;12.64;61.17
72636;BME280;60679;48.888;15.544;2023-03-25T08:11:11;95467.59;;;13.00;60.68
72636;BME280;60679;48.888;15.544;2023-03-25T08:13:37;95478.66;;;12.98;60.88
72636;BME280;60679;48.888;15.544;2023-03-25T08:16:09;95482.53;;;12.76;61.04
72636;BME280;60679;48.888;15.544;2023-03-25T08:18:36;95492.19;;;12.66;61.05
72636;BME280;60679;48.888;15.544;2023-03-25T08:21:01;95494.19;;;12.76;60.57
72636;BME280;60679;48.888;15.544;2023-03-25T08:23:27;95486.84;;;13.03;60.24
72636;BME280;60679;48.888;15.544;2023-03-25T08:25:53;95484.03;;;14.09;58.43
72636;BME280;60679;48.888;15.544;2023-03-25T08:28:19;95484.81;;;13.94;58.42
72636;BME280;60679;48.888;15.544;2023-03-25T08:30:48;95471.81;;;13.54;59.49
72636;BME280;60679;48.888;15.544;2023-03-25T08:33:15;95479.13;;;12.90;60.33
72636;BME280;60679;48.888;15.544;2023-03-25T08:35:43;95474.38;;;12.44;61.85
72636;BME280;60679;48.888;15.544;2023-03-25T08:38:08;95465.75;;;12.25;61.99
72636;BME280;60679;48.888;15.544;2023-03-25T08:40:35;95463.06;;;12.03;62.46
72636;BME280;60679;48.888;15.544;2023-03-25T08:43:03;95471.44;;;12.24;62.11
72636;BME280;60679;48.888;15.544;2023-03-25T08:45:29;95466.28;;;12.49;61.51
72636;BME280;60679;48.888;15.544;2023-03-25T08:47:57;95447.03;;;12.72;60.91
72636;BME280;60679;48.888;15.544;2023-03-25T08:50:22;95450.66;;;13.51;59.61
72636;BME280;60679;48.888;15.544;2023-03-25T08:52:48;95456.69;;;13.26;60.04
72636;BME280;60679;48.888;15.544;2023-03-25T08:55:13;95453.13;;;12.89;60.56
72636;BME280;60679;48.888;15.544;2023-03-25T08:57:40;95463.13;;;12.57;61.00
72636;BME280;60679;48.888;15.544;2023-03-25T09:00:07;95458.16;;;12.49;61.38
72636;BME280;60679;48.888;15.544;2023-03-25T09:02:39;95442.31;;;12.62;60.75
72636;BME280;60679;48.888;15.544;2023-03-25T09:05:07;95441.44;;;12.84;60.26
72636;BME280;60679;48.888;15.544;2023-03-25T09:07:33;95442.44;;;12.72;60.40
72636;BME280;60679;48.888;15.544;2023-03-25T09:09:58;95456.50;;;12.21;61.48
72636;BME280;60679;48.888;15.544;2023-03-25T09:12:23;95460.38;;;11.82;62.59
72636;BME280;60679;48.888;15.544;2023-03-25T09:14:49;95459.13;;;11.51;62.53
72636;BME280;60679;48.888;15.544;2023-03-25T09:17:14;95465.63;;;11.17;63.14
72636;BME280;60679;48.888;15.544;2023-03-25T09:19:40;95483.03;;;10.59;63.56
72636;BME280;60679;48.888;15.544;2023-03-25T09:22:06;95499.88;;;9.58;63.54
72636;BME280;60679;48.888;15.544;2023-03-25T09:24:31;95481.50;;;8.86;63.34
72636;BME280;60679;48.888;15.544;2023-03-25T09:26:59;95487.00;;;9.25;62.88
72636;BME280;60679;48.888;15.544;2023-03-25T09:29:26;95495.06;;;9.49;62.37
72636;BME280;60679;48.888;15.544;2023-03-25T09:31:51;95478.09;;;9.37;63.01
72636;BME280;60679;48.888;15.544;2023-03-25T09:34:17;95474.38;;;9.89;61.81
72636;BME280;60679;48.888;15.544;2023-03-25T09:36:42;95480.28;;;10.42;60.60
72636;BME280;60679;48.888;15.544;2023-03-25T09:39:10;95472.75;;;11.06;59.58
72636;BME280;60679;48.888;15.544;2023-03-25T09:44:57;95464.31;;;12.18;58.04
72636;BME280;60679;48.888;15.544;2023-03-25T09:47:28;95467.91;;;12.23;58.07
72636;BME280;60679;48.888;15.544;2023-03-25T09:49:59;95462.50;;;12.50;57.85
72636;BME280;60679;48.888;15.544;2023-03-25T09:52:30;95460.69;;;12.34;58.11
72636;BME280;60679;48.888;15.544;2023-03-25T09:55:07;95459.31;;;12.53;57.69
72636;BME280;60679;48.888;15.544;2023-03-25T09:57:42;95450.56;;;12.72;57.42
72636;BME280;60679;48.888;15.544;2023-03-25T10:00:16;95453.09;;;12.57;58.10
72636;BME280;60679;48.888;15.544;2023-03-25T10:02:50;95458.31;;;12.37;58.82
72636;BME280;60679;48.888;15.544;2023-03-25T10:24:25;95435.41;;;20.17;45.24
72636;BME280;60679;48.888;15.544;2023-03-25T10:26:59;95442.88;;;17.06;51.87
72636;BME280;60679;48.888;15.544;2023-03-25T10:29:40;95434.38;;;17.13;51.28
72636;BME280;60679;48.888;15.544;2023-03-25T10:32:15;95448.69;;;14.71;55.85
72636;BME280;60679;48.888;15.544;2023-03-25T10:34:46;95442.78;;;14.07;57.00
72636;BME280;60679;48.888;15.544;2023-03-25T10:37:19;95453.38;;;14.08;56.33
72636;BME280;60679;48.888;15.544;2023-03-25T10:39:48;95447.03;;;13.82;56.90
72636;BME280;60679;48.888;15.544;2023-03-25T10:42:27;95421.34;;;17.91;48.70
72636;BME280;60679;48.888;15.544;2023-03-25T10:44:57;95432.94;;;17.83;49.06
72636;BME280;60679;48.888;15.544;2023-03-25T10:47:26;95419.00;;;16.88;51.22
72636;BME280;60679;48.888;15.544;2023-03-25T10:49:53;95415.63;;;16.62;51.88
72636;BME280;60679;48.888;15.544;2023-03-25T10:52:19;95425.31;;;14.85;54.91
72636;BME280;60679;48.888;15.544;2023-03-25T10:54:49;95436.38;;;13.71;57.17
72636;BME280;60679;48.888;15.544;2023-03-25T10:57:23;95437.75;;;13.73;57.39
72636;BME280;60679;48.888;15.544;2023-03-25T11:02:41;95436.63;;;17.68;49.94
72636;BME280;60679;48.888;15.544;2023-03-25T11:05:08;95431.03;;;15.14;55.38
72636;BME280;60679;48.888;15.544;2023-03-25T11:07:48;95427.22;;;15.30;54.59
72636;BME280;60679;48.888;15.544;2023-03-25T11:10:19;95409.41;;;16.96;51.10
72636;BME280;60679;48.888;15.544;2023-03-25T11:12:45;95406.09;;;16.06;53.54
72636;BME280;60679;48.888;15.544;2023-03-25T11:15:20;95404.91;;;15.43;53.79
72636;BME280;60679;48.888;15.544;2023-03-25T11:17:53;95403.22;;;23.18;40.21
72636;BME280;60679;48.888;15.544;2023-03-25T11:20:21;95397.03;;;27.11;35.70
72636;BME280;60679;48.888;15.544;2023-03-25T11:22:52;95386.81;;;31.10;31.57
72636;BME280;60679;48.888;15.544;2023-03-25T11:25:29;95396.34;;;33.91;29.22
72636;BME280;60679;48.888;15.544;2023-03-25T11:27:57;95404.72;;;33.88;29.39
72636;BME280;60679;48.888;15.544;2023-03-25T11:30:25;95383.69;;;35.46;28.08
72636;BME280;60679;48.888;15.544;2023-03-25T11:33:04;95397.78;;;26.47;38.62
72636;BME280;60679;48.888;15.544;2023-03-25T11:35:36;95401.41;;;32.55;30.03
72636;BME280;60679;48.888;15.544;2023-03-25T11:38:19;95396.91;;;25.65;38.58
72636;BME280;60679;48.888;15.544;2023-03-25T11:40:55;95398.31;;;27.81;35.59
72636;BME280;60679;48.888;15.544;2023-03-25T11:43:22;95399.94;;;21.86;44.78
72636;BME280;60679;48.888;15.544;2023-03-25T11:45:49;95402.16;;;18.81;49.11
72636;BME280;60679;48.888;15.544;2023-03-25T11:48:23;95408.00;;;16.64;52.58
72636;BME280;60679;48.888;15.544;2023-03-25T11:50:57;95400.31;;;15.03;54.78
72636;BME280;60679;48.888;15.544;2023-03-25T11:53:26;95408.00;;;13.99;55.39
72636;BME280;60679;48.888;15.544;2023-03-25T11:55:54;95409.78;;;13.73;56.11
72636;BME280;60679;48.888;15.544;2023-03-25T11:58:25;95399.53;;;13.85;55.30
72636;BME280;60679;48.888;15.544;2023-03-25T12:01:01;95395.88;;;13.59;55.59
72636;BME280;60679;48.888;15.544;2023-03-25T12:03:27;95403.22;;;13.17;55.83
72636;BME280;60679;48.888;15.544;2023-03-25T12:06:20;95396.13;;;12.79;56.11
72636;BME280;60679;48.888;15.544;2023-03-25T12:08:52;95395.69;;;12.55;55.78
72636;BME280;60679;48.888;15.544;2023-03-25T12:11:28;95408.09;;;12.83;53.71
72636;BME280;60679;48.888;15.544;2023-03-25T12:28:13;95379.94;;;31.93;27.71
72636;BME280;60679;48.888;15.544;2023-03-25T12:47:47;95355.94;;;28.58;30.88
72636;BME280;60679;48.888;15.544;2023-03-25T12:58:29;95354.84;;;17.24;45.62
72636;BME280;60679;48.888;15.544;2023-03-25T13:01:39;95350.91;;;15.85;47.73
72636;BME280;60679;48.888;15.544;2023-03-25T13:04:41;95350.16;;;15.75;47.86
72636;BME280;60679;48.888;15.544;2023-03-25T13:07:34;95336.97;;;16.85;45.45
72636;BME280;60679;48.888;15.544;2023-03-25T13:12:33;95326.25;;;24.52;33.89
72636;BME280;60679;48.888;15.544;2023-03-25T13:17:43;95332.81;;;22.18;38.96
72636;BME280;60679;48.888;15.544;2023-03-25T13:20:11;95330.38;;;18.52;43.55
72636;BME280;60679;48.888;15.544;2023-03-25T13:22:42;95334.38;;;17.51;44.05
72636;BME280;60679;48.888;15.544;2023-03-25T13:25:32;95319.31;;;21.99;37.25
72636;BME280;60679;48.888;15.544;2023-03-25T13:28:03;95316.25;;;23.72;34.97
72636;BME280;60679;48.888;15.544;2023-03-25T13:30:37;95327.56;;;21.38;38.12
72636;BME280;60679;48.888;15.544;2023-03-25T13:33:10;95316.59;;;26.71;31.98
72636;BME280;60679;48.888;15.544;2023-03-25T13:35:44;95318.16;;;27.08;31.13
72636;BME280;60679;48.888;15.544;2023-03-25T13:38:18;95315.06;;;23.90;34.21
72636;BME280;60679;48.888;15.544;2023-03-25T13:43:46;95323.28;;;21.54;36.18
72636;BME280;60679;48.888;15.544;2023-03-25T13:46:20;95326.97;;;17.80;41.95
72636;BME280;60679;48.888;15.544;2023-03-25T13:48:54;95331.63;;;16.69;43.47
72636;BME280;60679;48.888;15.544;2023-03-25T13:51:22;95326.22;;;15.72;44.77
72636;BME280;60679;48.888;15.544;2023-03-25T14:07:38;95324.84;;;13.72;46.89
72636;BME280;60679;48.888;15.544;2023-03-25T14:13:00;95312.91;;;15.60;43.61
72636;BME280;60679;48.888;15.544;2023-03-25T14:15:34;95319.31;;;14.39;45.79
72636;BME280;60679;48.888;15.544;2023-03-25T14:18:02;95317.41;;;14.40;45.75
72636;BME280;60679;48.888;15.544;2023-03-25T14:20:33;95309.16;;;13.95;46.41
72636;BME280;60679;48.888;15.544;2023-03-25T14:23:07;95312.34;;;13.61;47.12
72636;BME280;60679;48.888;15.544;2023-03-25T14:25:45;95310.56;;;13.25;47.85
72636;BME280;60679;48.888;15.544;2023-03-25T14:28:18;95315.34;;;13.08;48.15
72636;BME280;60679;48.888;15.544;2023-03-25T14:31:05;95310.53;;;13.15;47.96
72636;BME280;60679;48.888;15.544;2023-03-25T14:39:10;95312.94;;;13.16;48.14
72636;BME280;60679;48.888;15.544;2023-03-25T14:41:56;95306.19;;;13.19;48.01
72636;BME280;60679;48.888;15.544;2023-03-25T14:44:23;95304.91;;;13.32;47.86
72636;BME280;60679;48.888;15.544;2023-03-25T14:50:28;95305.72;;;14.19;46.46
72636;BME280;60679;48.888;15.544;2023-03-25T14:52:57;95306.78;;;14.08;46.56
72636;BME280;60679;48.888;15.544;2023-03-25T14:57:59;95294.16;;;21.44;35.71
72636;BME280;60679;48.888;15.544;2023-03-25T15:00:29;95287.13;;;21.29;36.97
72636;BME280;60679;48.888;15.544;2023-03-25T15:03:01;95279.78;;;20.00;39.01
72636;BME280;60679;48.888;15.544;2023-03-25T15:05:29;95288.84;;;19.60;39.50
72636;BME280;60679;48.888;15.544;2023-03-25T15:07:58;95289.09;;;16.97;41.66
72636;BME280;60679;48.888;15.544;2023-03-25T15:10:29;95292.69;;;14.52;44.74
72636;BME280;60679;48.888;15.544;2023-03-25T15:21:10;95315.63;;;11.79;49.04
72636;BME280;60679;48.888;15.544;2023-03-25T15:26:18;95355.69;;;11.39;49.58
72636;BME280;60679;48.888;15.544;2023-03-25T15:34:27;95461.97;;;6.98;54.92
72636;BME280;60679;48.888;15.544;2023-03-25T15:40:07;95429.47;;;7.07;55.55
72636;BME280;60679;48.888;15.544;2023-03-25T15:56:43;95397.44;;;20.51;36.64
72636;BME280;60679;48.888;15.544;2023-03-25T16:02:34;95391.72;;;20.97;36.34
72636;BME280;60679;48.888;15.544;2023-03-25T16:05:02;95404.69;;;14.79;45.70
72636;BME280;60679;48.888;15.544;2023-03-25T16:07:28;95409.44;;;12.00;50.72